sensor_id;sensor_type;location;lat;lon;timestamp;P1;durP1;ratioP1;P2;durP2;ratioP2
9260;SDS011;4667;42.726;23.252;2023-02-01T08:48:27;5.23;;;2.47;;
9260;SDS011;4667;42.726;23.252;2023-02-01T08:50:53;10.77;;;2.73;;
9260;SDS011;4667;42.726;23.252;2023-02-01T08:53:20;3.13;;;2.40;;
9260;SDS011;4667;42.726;23.252;2023-02-01T08:55:47;2.60;;;2.20;;
9260;SDS011;4667;42.726;23.252;2023-02-01T08:58:14;2.63;;;2.43;;
9260;SDS011;4667;42.726;23.252;2023-02-01T09:00:45;2.70;;;2.30;;
9260;SDS011;4667;42.726;23.252;2023-02-01T09:03:13;2.87;;;2.20;;
9260;SDS011;4667;42.726;23.252;2023-02-01T09:05:41;3.13;;;2.20;;
9260;SDS011;4667;42.726;23.252;2023-02-01T09:08:08;3.83;;;2.50;;
9260;SDS011;4667;42.726;23.252;2023-02-01T09:10:36;3.30;;;2.40;;
9260;SDS011;4667;42.726;23.252;2023-02-01T09:13:02;2.23;;;2.03;;
9260;SDS011;4667;42.726;23.252;2023-02-01T09:15:29;2.20;;;2.00;;
9260;SDS011;4667;42.726;23.252;2023-02-01T09:17:56;2.27;;;2.07;;
9260;SDS011;4667;42.726;23.252;2023-02-01T09:20:22;4.07;;;2.33;;
9260;SDS011;4667;42.726;23.252;2023-02-01T09:22:51;2.90;;;2.07;;
9260;SDS011;4667;42.726;23.252;2023-02-01T09:25:17;2.47;;;2.27;;
9260;SDS011;4667;42.726;23.252;2023-02-01T09:27:44;2.40;;;2.03;;
9260;SDS011;4667;42.726;23.252;2023-02-01T09:30:11;4.23;;;2.40;;
9260;SDS011;4667;42.726;23.252;2023-02-01T09:32:40;3.13;;;2.13;;
9260;SDS011;4667;42.726;23.252;2023-02-01T09:35:06;5.13;;;2.70;;
9260;SDS011;4667;42.726;23.252;2023-02-01T09:37:33;1.97;;;1.87;;
9260;SDS011;4667;42.726;23.252;2023-02-01T09:40:04;1.60;;;1.50;;
9260;SDS011;4667;42.726;23.252;2023-02-01T09:42:36;3.37;;;2.03;;
9260;SDS011;4667;42.726;23.252;2023-02-01T09:45:11;2.10;;;1.90;;
9260;SDS011;4667;42.726;23.252;2023-02-01T09:47:43;3.43;;;1.80;;
9260;SDS011;4667;42.726;23.252;2023-02-01T09:50:13;3.67;;;1.30;;
9260;SDS011;4667;42.726;23.252;2023-02-01T09:52:43;1.87;;;1.77;;
9260;SDS011;4667;42.726;23.252;2023-02-01T09:55:16;2.20;;;1.70;;
9260;SDS011;4667;42.726;23.252;2023-02-01T09:57:55;3.77;;;2.07;;
9260;SDS011;4667;42.726;23.252;2023-02-01T10:00:24;3.97;;;2.73;;
9260;SDS011;4667;42.726;23.252;2023-02-01T10:03:09;2.10;;;2.00;;
9260;SDS011;4667;42.726;23.252;2023-02-01T10:05:41;2.53;;;2.33;;
9260;SDS011;4667;42.726;23.252;2023-02-01T10:08:24;2.10;;;1.90;;
9260;SDS011;4667;42.726;23.252;2023-02-01T10:13:58;2.20;;;1.83;;
9260;SDS011;4667;42.726;23.252;2023-02-01T10:16:45;2.30;;;2.07;;
9260;SDS011;4667;42.726;23.252;2023-02-01T10:19:22;1.73;;;1.50;;
9260;SDS011;4667;42.726;23.252;2023-02-01T10:21:52;1.60;;;1.50;;
9260;SDS011;4667;42.726;23.252;2023-02-01T10:24:34;2.33;;;1.97;;
9260;SDS011;4667;42.726;23.252;2023-02-01T10:27:02;4.67;;;1.73;;
9260;SDS011;4667;42.726;23.252;2023-02-01T10:29:36;3.33;;;1.77;;
9260;SDS011;4667;42.726;23.252;2023-02-01T10:32:07;2.43;;;1.90;;
9260;SDS011;4667;42.726;23.252;2023-02-01T10:34:36;2.30;;;1.80;;
9260;SDS011;4667;42.726;23.252;2023-02-01T10:37:08;3.63;;;2.23;;
9260;SDS011;4667;42.726;23.252;2023-02-01T10:39:36;2.63;;;2.10;;
9260;SDS011;4667;42.726;23.252;2023-02-01T10:42:03;2.57;;;1.90;;
9260;SDS011;4667;42.726;23.252;2023-02-01T10:44:30;3.00;;;2.13;;
9260;SDS011;4667;42.726;23.252;2023-02-01T10:46:58;2.30;;;2.00;;
9260;SDS011;4667;42.726;23.252;2023-02-01T10:49:26;3.17;;;1.70;;
9260;SDS011;4667;42.726;23.252;2023-02-01T10:51:57;4.60;;;2.00;;
9260;SDS011;4667;42.726;23.252;2023-02-01T10:54:31;2.37;;;1.87;;
9260;SDS011;4667;42.726;23.252;2023-02-01T10:56:58;1.70;;;1.60;;
9260;SDS011;4667;42.726;23.252;2023-02-01T10:59:25;3.13;;;1.70;;
9260;SDS011;4667;42.726;23.252;2023-02-01T11:01:57;5.47;;;1.70;;
9260;SDS011;4667;42.726;23.252;2023-02-01T11:04:26;3.47;;;1.90;;
9260;SDS011;4667;42.726;23.252;2023-02-01T11:06:53;4.07;;;1.43;;
9260;SDS011;4667;42.726;23.252;2023-02-01T11:09:21;2.70;;;1.77;;
9260;SDS011;4667;42.726;23.252;2023-02-01T11:11:52;2.00;;;1.60;;
9260;SDS011;4667;42.726;23.252;2023-02-01T11:14:20;3.33;;;1.70;;
9260;SDS011;4667;42.726;23.252;2023-02-01T11:16:47;1.57;;;1.43;;
9260;SDS011;4667;42.726;23.252;2023-02-01T11:19:14;2.23;;;2.07;;
9260;SDS011;4667;42.726;23.252;2023-02-01T11:21:46;1.93;;;1.83;;
9260;SDS011;4667;42.726;23.252;2023-02-01T11:24:16;3.20;;;1.30;;
9260;SDS011;4667;42.726;23.252;2023-02-01T11:26:45;3.33;;;2.23;;
9260;SDS011;4667;42.726;23.252;2023-02-01T11:29:12;3.73;;;1.93;;
9260;SDS011;4667;42.726;23.252;2023-02-01T11:31:42;2.17;;;1.80;;
9260;SDS011;4667;42.726;23.252;2023-02-01T11:34:11;3.03;;;1.83;;
9260;SDS011;4667;42.726;23.252;2023-02-01T11:36:38;3.03;;;1.80;;
9260;SDS011;4667;42.726;23.252;2023-02-01T11:39:18;2.40;;;1.40;;
9260;SDS011;4667;42.726;23.252;2023-02-01T11:41:55;3.43;;;1.70;;
9260;SDS011;4667;42.726;23.252;2023-02-01T11:44:25;1.97;;;1.73;;
9260;SDS011;4667;42.726;23.252;2023-02-01T11:46:52;2.03;;;1.40;;
9260;SDS011;4667;42.726;23.252;2023-02-01T11:49:20;2.90;;;1.80;;
9260;SDS011;4667;42.726;23.252;2023-02-01T11:51:51;4.20;;;1.40;;
9260;SDS011;4667;42.726;23.252;2023-02-01T11:54:28;1.77;;;1.57;;
9260;SDS011;4667;42.726;23.252;2023-02-01T11:57:00;1.60;;;1.43;;
9260;SDS011;4667;42.726;23.252;2023-02-01T11:59:38;1.90;;;1.70;;
9260;SDS011;4667;42.726;23.252;2023-02-01T12:02:18;2.40;;;2.00;;
9260;SDS011;4667;42.726;23.252;2023-02-01T12:07:48;2.43;;;2.03;;
9260;SDS011;4667;42.726;23.252;2023-02-01T12:10:21;2.50;;;1.50;;
9260;SDS011;4667;42.726;23.252;2023-02-01T12:12:51;1.70;;;1.60;;
9260;SDS011;4667;42.726;23.252;2023-02-01T12:15:34;1.50;;;1.40;;
9260;SDS011;4667;42.726;23.252;2023-02-01T12:18:17;3.87;;;1.40;;
9260;SDS011;4667;42.726;23.252;2023-02-01T12:20:52;2.03;;;1.93;;
9260;SDS011;4667;42.726;23.252;2023-02-01T12:23:26;2.70;;;1.47;;
9260;SDS011;4667;42.726;23.252;2023-02-01T12:26:02;3.40;;;1.90;;
9260;SDS011;4667;42.726;23.252;2023-02-01T12:28:37;1.73;;;1.50;;
9260;SDS011;4667;42.726;23.252;2023-02-01T12:31:15;2.73;;;1.67;;
9260;SDS011;4667;42.726;23.252;2023-02-01T12:33:52;1.67;;;1.57;;
9260;SDS011;4667;42.726;23.252;2023-02-01T12:36:23;1.33;;;1.20;;
9260;SDS011;4667;42.726;23.252;2023-02-01T12:38:54;1.73;;;1.50;;
9260;SDS011;4667;42.726;23.252;2023-02-01T12:44:07;2.57;;;1.60;;
9260;SDS011;4667;42.726;23.252;2023-02-01T12:46:44;2.27;;;1.77;;
9260;SDS011;4667;42.726;23.252;2023-02-01T12:49:14;1.70;;;1.60;;
9260;SDS011;4667;42.726;23.252;2023-02-01T12:51:42;1.70;;;1.60;;
9260;SDS011;4667;42.726;23.252;2023-02-01T12:54:12;4.20;;;1.97;;
9260;SDS011;4667;42.726;23.252;2023-02-01T12:56:41;1.27;;;1.17;;
9260;SDS011;4667;42.726;23.252;2023-02-01T12:59:13;2.10;;;1.60;;
9260;SDS011;4667;42.726;23.252;2023-02-01T13:01:44;1.63;;;1.53;;
9260;SDS011;4667;42.726;23.252;2023-02-01T13:04:19;1.37;;;1.27;;
9260;SDS011;4667;42.726;23.252;2023-02-01T13:06:47;2.17;;;1.60;;
9260;SDS011;4667;42.726;23.252;2023-02-01T13:09:21;1.57;;;1.47;;
9260;SDS011;4667;42.726;23.252;2023-02-01T13:11:53;1.70;;;1.60;;
9260;SDS011;4667;42.726;23.252;2023-02-01T13:14:37;4.90;;;1.63;;
9260;SDS011;4667;42.726;23.252;2023-02-01T13:17:05;1.50;;;1.40;;
9260;SDS011;4667;42.726;23.252;2023-02-01T13:19:39;1.73;;;1.63;;
9260;SDS011;4667;42.726;23.252;2023-02-01T13:22:10;1.50;;;1.40;;
9260;SDS011;4667;42.726;23.252;2023-02-01T13:24:40;1.40;;;1.30;;
9260;SDS011;4667;42.726;23.252;2023-02-01T13:27:26;1.90;;;1.50;;
9260;SDS011;4667;42.726;23.252;2023-02-01T13:29:58;1.60;;;1.43;;
9260;SDS011;4667;42.726;23.252;2023-02-01T13:32:29;1.83;;;1.23;;
9260;SDS011;4667;42.726;23.252;2023-02-01T13:35:03;2.00;;;1.80;;
9260;SDS011;4667;42.726;23.252;2023-02-01T13:37:39;1.83;;;1.40;;
9260;SDS011;4667;42.726;23.252;2023-02-01T13:40:17;1.93;;;1.60;;
9260;SDS011;4667;42.726;23.252;2023-02-01T13:42:48;1.60;;;1.50;;
9260;SDS011;4667;42.726;23.252;2023-02-01T13:45:25;1.50;;;1.40;;
9260;SDS011;4667;42.726;23.252;2023-02-01T13:47:53;3.30;;;1.77;;
9260;SDS011;4667;42.726;23.252;2023-02-01T13:50:21;1.83;;;1.60;;
9260;SDS011;4667;42.726;23.252;2023-02-01T13:53:13;1.63;;;1.47;;
9260;SDS011;4667;42.726;23.252;2023-02-01T13:55:40;2.40;;;1.43;;
9260;SDS011;4667;42.726;23.252;2023-02-01T13:58:15;1.57;;;1.47;;
9260;SDS011;4667;42.726;23.252;2023-02-01T14:00:51;1.70;;;1.60;;
9260;SDS011;4667;42.726;23.252;2023-02-01T14:03:44;1.97;;;1.80;;
9260;SDS011;4667;42.726;23.252;2023-02-01T14:06:18;1.63;;;1.53;;
9260;SDS011;4667;42.726;23.252;2023-02-01T14:11:59;2.40;;;1.87;;
9260;SDS011;4667;42.726;23.252;2023-02-01T14:14:53;1.90;;;1.73;;
9260;SDS011;4667;42.726;23.252;2023-02-01T14:17:58;2.67;;;1.67;;
9260;SDS011;4667;42.726;23.252;2023-02-01T14:23:22;3.33;;;2.33;;
9260;SDS011;4667;42.726;23.252;2023-02-01T14:26:11;1.60;;;1.50;;
9260;SDS011;4667;42.726;23.252;2023-02-01T14:28:59;1.80;;;1.70;;
9260;SDS011;4667;42.726;23.252;2023-02-01T14:31:42;3.17;;;1.90;;
9260;SDS011;4667;42.726;23.252;2023-02-01T14:40:04;2.30;;;1.87;;
9260;SDS011;4667;42.726;23.252;2023-02-01T14:43:14;1.70;;;1.60;;
9260;SDS011;4667;42.726;23.252;2023-02-01T14:45:48;2.40;;;1.73;;
9260;SDS011;4667;42.726;23.252;2023-02-01T14:49:02;1.90;;;1.80;;
9260;SDS011;4667;42.726;23.252;2023-02-01T14:51:44;1.80;;;1.70;;
9260;SDS011;4667;42.726;23.252;2023-02-01T14:54:28;1.83;;;1.73;;
9260;SDS011;4667;42.726;23.252;2023-02-01T14:57:16;1.83;;;1.73;;
9260;SDS011;4667;42.726;23.252;2023-02-01T14:59:43;2.00;;;1.90;;
9260;SDS011;4667;42.726;23.252;2023-02-01T15:02:17;1.93;;;1.77;;
9260;SDS011;4667;42.726;23.252;2023-02-01T15:04:45;2.13;;;1.80;;
9260;SDS011;4667;42.726;23.252;2023-02-01T15:07:12;3.57;;;2.73;;
9260;SDS011;4667;42.726;23.252;2023-02-01T15:09:42;1.77;;;1.67;;
9260;SDS011;4667;42.726;23.252;2023-02-01T15:15:24;4.67;;;1.93;;
9260;SDS011;4667;42.726;23.252;2023-02-01T15:17:53;2.23;;;1.87;;
9260;SDS011;4667;42.726;23.252;2023-02-01T15:20:21;2.23;;;1.80;;
9260;SDS011;4667;42.726;23.252;2023-02-01T15:22:57;2.43;;;2.23;;
9260;SDS011;4667;42.726;23.252;2023-02-01T15:25:26;6.83;;;2.67;;
9260;SDS011;4667;42.726;23.252;2023-02-01T15:42:40;7.03;;;3.90;;
9260;SDS011;4667;42.726;23.252;2023-02-01T15:45:16;2.90;;;2.70;;
9260;SDS011;4667;42.726;23.252;2023-02-01T15:47:46;3.13;;;2.43;;
9260;SDS011;4667;42.726;23.252;2023-02-01T15:50:15;4.27;;;3.27;;
9260;SDS011;4667;42.726;23.252;2023-02-01T15:52:46;5.63;;;3.57;;
9260;SDS011;4667;42.726;23.252;2023-02-01T15:55:17;4.93;;;3.20;;
9260;SDS011;4667;42.726;23.252;2023-02-01T15:57:46;2.47;;;2.27;;
9260;SDS011;4667;42.726;23.252;2023-02-01T16:00:18;3.40;;;2.73;;
9260;SDS011;4667;42.726;23.252;2023-02-01T16:02:51;7.47;;;3.63;;
9260;SDS011;4667;42.726;23.252;2023-02-01T16:08:12;3.67;;;2.40;;
9260;SDS011;4667;42.726;23.252;2023-02-01T16:10:42;3.27;;;2.53;;
9260;SDS011;4667;42.726;23.252;2023-02-01T16:13:10;2.73;;;2.17;;
9260;SDS011;4667;42.726;23.252;2023-02-01T16:15:38;3.20;;;2.37;;
9260;SDS011;4667;42.726;23.252;2023-02-01T16:18:06;4.47;;;3.10;;
9260;SDS011;4667;42.726;23.252;2023-02-01T16:20:40;7.63;;;3.10;;
9260;SDS011;4667;42.726;23.252;2023-02-01T16:23:24;3.60;;;2.93;;
9260;SDS011;4667;42.726;23.252;2023-02-01T16:26:01;4.97;;;4.00;;
9260;SDS011;4667;42.726;23.252;2023-02-01T16:28:44;3.83;;;3.40;;
9260;SDS011;4667;42.726;23.252;2023-02-01T16:31:13;4.23;;;3.73;;
9260;SDS011;4667;42.726;23.252;2023-02-01T16:33:49;5.83;;;4.13;;
9260;SDS011;4667;42.726;23.252;2023-02-01T16:36:26;5.30;;;3.40;;
9260;SDS011;4667;42.726;23.252;2023-02-01T16:39:07;3.27;;;2.67;;
9260;SDS011;4667;42.726;23.252;2023-02-01T16:41:36;9.43;;;4.77;;
9260;SDS011;4667;42.726;23.252;2023-02-01T16:44:12;10.77;;;5.87;;
9260;SDS011;4667;42.726;23.252;2023-02-01T16:46:42;8.53;;;5.20;;
9260;SDS011;4667;42.726;23.252;2023-02-01T16:49:15;10.40;;;5.60;;
9260;SDS011;4667;42.726;23.252;2023-02-01T16:51:48;12.50;;;4.87;;
9260;SDS011;4667;42.726;23.252;2023-02-01T16:54:15;6.17;;;4.10;;
9260;SDS011;4667;42.726;23.252;2023-02-01T16:56:42;12.17;;;5.43;;
9260;SDS011;4667;42.726;23.252;2023-02-01T16:59:14;7.90;;;4.90;;
9260;SDS011;4667;42.726;23.252;2023-02-01T17:01:52;9.30;;;5.27;;
9260;SDS011;4667;42.726;23.252;2023-02-01T17:04:20;7.93;;;5.03;;
9260;SDS011;4667;42.726;23.252;2023-02-01T17:06:47;6.97;;;5.03;;
9260;SDS011;4667;42.726;23.252;2023-02-01T17:09:15;6.67;;;4.10;;
9260;SDS011;4667;42.726;23.252;2023-02-01T17:11:51;5.83;;;4.23;;
9260;SDS011;4667;42.726;23.252;2023-02-01T17:14:29;5.57;;;4.07;;
9260;SDS011;4667;42.726;23.252;2023-02-01T17:17:10;7.10;;;4.77;;
9260;SDS011;4667;42.726;23.252;2023-02-01T17:19:42;7.73;;;4.67;;
9260;SDS011;4667;42.726;23.252;2023-02-01T17:22:23;9.45;;;5.82;;
9260;SDS011;4667;42.726;23.252;2023-02-01T17:25:01;7.93;;;4.47;;
9260;SDS011;4667;42.726;23.252;2023-02-01T17:27:34;3.73;;;3.40;;
9260;SDS011;4667;42.726;23.252;2023-02-01T17:30:19;8.40;;;3.27;;
9260;SDS011;4667;42.726;23.252;2023-02-01T17:32:48;2.00;;;1.90;;
9260;SDS011;4667;42.726;23.252;2023-02-01T17:38:20;2.27;;;1.80;;
9260;SDS011;4667;42.726;23.252;2023-02-01T17:40:50;2.40;;;2.20;;
9260;SDS011;4667;42.726;23.252;2023-02-01T17:43:18;3.50;;;2.80;;
9260;SDS011;4667;42.726;23.252;2023-02-01T17:45:48;3.67;;;3.03;;
9260;SDS011;4667;42.726;23.252;2023-02-01T17:48:16;3.13;;;2.30;;
9260;SDS011;4667;42.726;23.252;2023-02-01T17:50:44;2.00;;;1.90;;
9260;SDS011;4667;42.726;23.252;2023-02-01T17:53:15;8.20;;;3.57;;
9260;SDS011;4667;42.726;23.252;2023-02-01T17:55:51;6.07;;;3.73;;
9260;SDS011;4667;42.726;23.252;2023-02-01T17:58:25;4.10;;;3.47;;
9260;SDS011;4667;42.726;23.252;2023-02-01T18:00:55;4.53;;;3.23;;
9260;SDS011;4667;42.726;23.252;2023-02-01T18:03:25;10.27;;;5.57;;
9260;SDS011;4667;42.726;23.252;2023-02-01T18:05:54;9.00;;;4.93;;
9260;SDS011;4667;42.726;23.252;2023-02-01T18:08:22;7.23;;;4.23;;
9260;SDS011;4667;42.726;23.252;2023-02-01T18:10:49;6.63;;;4.20;;
9260;SDS011;4667;42.726;23.252;2023-02-01T18:13:19;4.00;;;3.57;;
9260;SDS011;4667;42.726;23.252;2023-02-01T18:15:51;7.30;;;4.93;;
9260;SDS011;4667;42.726;23.252;2023-02-01T18:21:09;5.17;;;3.27;;
9260;SDS011;4667;42.726;23.252;2023-02-01T18:23:49;3.90;;;3.40;;
9260;SDS011;4667;42.726;23.252;2023-02-01T18:26:16;3.90;;;3.13;;
9260;SDS011;4667;42.726;23.252;2023-02-01T18:28:46;4.03;;;2.80;;
9260;SDS011;4667;42.726;23.252;2023-02-01T18:31:19;3.20;;;2.07;;
9260;SDS011;4667;42.726;23.252;2023-02-01T18:33:49;6.50;;;2.67;;
9260;SDS011;4667;42.726;23.252;2023-02-01T18:36:22;2.30;;;1.87;;
9260;SDS011;4667;42.726;23.252;2023-02-01T18:38:50;4.00;;;3.00;;
9260;SDS011;4667;42.726;23.252;2023-02-01T18:41:18;5.27;;;3.57;;
9260;SDS011;4667;42.726;23.252;2023-02-01T18:46:52;5.53;;;3.53;;
9260;SDS011;4667;42.726;23.252;2023-02-01T18:49:22;4.03;;;3.67;;
9260;SDS011;4667;42.726;23.252;2023-02-01T18:51:52;3.47;;;3.17;;
9260;SDS011;4667;42.726;23.252;2023-02-01T18:54:19;4.17;;;3.57;;
9260;SDS011;4667;42.726;23.252;2023-02-01T18:56:48;6.07;;;3.87;;
9260;SDS011;4667;42.726;23.252;2023-02-01T18:59:29;4.50;;;3.27;;
9260;SDS011;4667;42.726;23.252;2023-02-01T19:01:56;5.50;;;3.93;;
9260;SDS011;4667;42.726;23.252;2023-02-01T19:04:28;4.43;;;3.50;;
9260;SDS011;4667;42.726;23.252;2023-02-01T19:07:00;4.77;;;3.93;;
9260;SDS011;4667;42.726;23.252;2023-02-01T19:09:32;3.70;;;3.37;;
9260;SDS011;4667;42.726;23.252;2023-02-01T19:12:06;4.80;;;3.20;;
9260;SDS011;4667;42.726;23.252;2023-02-01T19:14:38;9.97;;;3.70;;
9260;SDS011;4667;42.726;23.252;2023-02-01T19:17:08;5.10;;;3.33;;
9260;SDS011;4667;42.726;23.252;2023-02-01T19:19:35;4.60;;;3.63;;
9260;SDS011;4667;42.726;23.252;2023-02-01T19:22:06;4.23;;;3.73;;
9260;SDS011;4667;42.726;23.252;2023-02-01T19:24:47;5.17;;;3.17;;
9260;SDS011;4667;42.726;23.252;2023-02-01T19:27:14;5.47;;;3.37;;
9260;SDS011;4667;42.726;23.252;2023-02-01T19:29:43;7.63;;;3.40;;
9260;SDS011;4667;42.726;23.252;2023-02-01T19:32:13;4.50;;;3.00;;
9260;SDS011;4667;42.726;23.252;2023-02-01T19:34:41;3.63;;;2.80;;
9260;SDS011;4667;42.726;23.252;2023-02-01T19:37:09;6.90;;;3.57;;
9260;SDS011;4667;42.726;23.252;2023-02-01T19:39:39;5.87;;;3.63;;
9260;SDS011;4667;42.726;23.252;2023-02-01T19:42:06;3.53;;;2.70;;
9260;SDS011;4667;42.726;23.252;2023-02-01T19:44:37;8.73;;;5.23;;
9260;SDS011;4667;42.726;23.252;2023-02-01T19:47:08;12.67;;;4.90;;
9260;SDS011;4667;42.726;23.252;2023-02-01T19:49:38;4.60;;;4.20;;
9260;SDS011;4667;42.726;23.252;2023-02-01T19:52:05;6.87;;;4.13;;
9260;SDS011;4667;42.726;23.252;2023-02-01T19:54:36;5.50;;;3.93;;
9260;SDS011;4667;42.726;23.252;2023-02-01T19:57:06;9.60;;;4.83;;
9260;SDS011;4667;42.726;23.252;2023-02-01T19:59:38;5.27;;;3.93;;
9260;SDS011;4667;42.726;23.252;2023-02-01T20:02:08;5.30;;;3.60;;
9260;SDS011;4667;42.726;23.252;2023-02-01T20:04:38;7.83;;;4.30;;
9260;SDS011;4667;42.726;23.252;2023-02-01T20:07:08;10.70;;;4.97;;
9260;SDS011;4667;42.726;23.252;2023-02-01T20:09:45;6.37;;;4.47;;
9260;SDS011;4667;42.726;23.252;2023-02-01T20:12:29;7.07;;;5.20;;
9260;SDS011;4667;42.726;23.252;2023-02-01T20:17:36;9.13;;;5.17;;
9260;SDS011;4667;42.726;23.252;2023-02-01T20:20:03;8.40;;;4.97;;
9260;SDS011;4667;42.726;23.252;2023-02-01T20:22:30;8.73;;;4.63;;
9260;SDS011;4667;42.726;23.252;2023-02-01T20:24:58;9.77;;;5.40;;
9260;SDS011;4667;42.726;23.252;2023-02-01T20:27:27;6.13;;;3.87;;
9260;SDS011;4667;42.726;23.252;2023-02-01T20:29:54;6.37;;;4.27;;
9260;SDS011;4667;42.726;23.252;2023-02-01T20:32:22;7.27;;;4.00;;
9260;SDS011;4667;42.726;23.252;2023-02-01T20:34:49;7.67;;;4.90;;
9260;SDS011;4667;42.726;23.252;2023-02-01T20:37:17;4.90;;;4.10;;
9260;SDS011;4667;42.726;23.252;2023-02-01T20:39:44;5.00;;;3.97;;
9260;SDS011;4667;42.726;23.252;2023-02-01T20:42:14;7.40;;;6.30;;
9260;SDS011;4667;42.726;23.252;2023-02-01T20:44:43;8.67;;;4.63;;
9260;SDS011;4667;42.726;23.252;2023-02-01T20:47:23;4.87;;;4.27;;
9260;SDS011;4667;42.726;23.252;2023-02-01T20:49:51;6.03;;;4.30;;
9260;SDS011;4667;42.726;23.252;2023-02-01T20:52:22;6.80;;;4.77;;
9260;SDS011;4667;42.726;23.252;2023-02-01T20:55:09;4.47;;;4.07;;
9260;SDS011;4667;42.726;23.252;2023-02-01T20:57:37;5.87;;;4.30;;
9260;SDS011;4667;42.726;23.252;2023-02-01T21:00:09;14.03;;;4.87;;
9260;SDS011;4667;42.726;23.252;2023-02-01T21:02:42;6.10;;;3.80;;
9260;SDS011;4667;42.726;23.252;2023-02-01T21:05:19;5.83;;;3.73;;
9260;SDS011;4667;42.726;23.252;2023-02-01T21:07:46;5.13;;;3.83;;
9260;SDS011;4667;42.726;23.252;2023-02-01T21:10:12;7.40;;;3.93;;
9260;SDS011;4667;42.726;23.252;2023-02-01T21:12:42;4.60;;;4.13;;
9260;SDS011;4667;42.726;23.252;2023-02-01T21:15:12;6.47;;;4.20;;
9260;SDS011;4667;42.726;23.252;2023-02-01T21:17:50;6.67;;;4.00;;
9260;SDS011;4667;42.726;23.252;2023-02-01T21:20:17;4.57;;;4.17;;
9260;SDS011;4667;42.726;23.252;2023-02-01T21:22:43;6.80;;;3.80;;
9260;SDS011;4667;42.726;23.252;2023-02-01T21:25:14;4.30;;;3.73;;
9260;SDS011;4667;42.726;23.252;2023-02-01T21:27:46;4.47;;;4.00;;
9260;SDS011;4667;42.726;23.252;2023-02-01T21:30:15;3.80;;;3.20;;
9260;SDS011;4667;42.726;23.252;2023-02-01T21:32:42;13.90;;;5.17;;
9260;SDS011;4667;42.726;23.252;2023-02-01T21:35:14;8.90;;;5.43;;
9260;SDS011;4667;42.726;23.252;2023-02-01T21:37:44;5.77;;;4.57;;
9260;SDS011;4667;42.726;23.252;2023-02-01T21:40:10;8.10;;;4.63;;
9260;SDS011;4667;42.726;23.252;2023-02-01T21:42:38;8.77;;;4.07;;
9260;SDS011;4667;42.726;23.252;2023-02-01T21:45:09;3.53;;;3.23;;
9260;SDS011;4667;42.726;23.252;2023-02-01T21:47:36;5.93;;;3.63;;
9260;SDS011;4667;42.726;23.252;2023-02-01T21:50:04;5.67;;;4.10;;
9260;SDS011;4667;42.726;23.252;2023-02-01T21:52:45;2.90;;;2.70;;
9260;SDS011;4667;42.726;23.252;2023-02-01T21:55:12;5.07;;;3.03;;
9260;SDS011;4667;42.726;23.252;2023-02-01T21:57:39;6.43;;;3.13;;
9260;SDS011;4667;42.726;23.252;2023-02-01T22:00:07;4.37;;;3.27;;
9260;SDS011;4667;42.726;23.252;2023-02-01T22:02:35;6.27;;;3.70;;
9260;SDS011;4667;42.726;23.252;2023-02-01T22:05:02;6.57;;;3.53;;
9260;SDS011;4667;42.726;23.252;2023-02-01T22:07:36;3.50;;;3.20;;
9260;SDS011;4667;42.726;23.252;2023-02-01T22:10:06;5.13;;;3.47;;
9260;SDS011;4667;42.726;23.252;2023-02-01T22:12:33;4.83;;;3.37;;
9260;SDS011;4667;42.726;23.252;2023-02-01T22:15:00;4.00;;;3.60;;
9260;SDS011;4667;42.726;23.252;2023-02-01T22:17:28;6.20;;;3.30;;
9260;SDS011;4667;42.726;23.252;2023-02-01T22:19:56;3.70;;;3.23;;
9260;SDS011;4667;42.726;23.252;2023-02-01T22:22:23;3.87;;;3.27;;
9260;SDS011;4667;42.726;23.252;2023-02-01T22:24:50;4.13;;;2.73;;
9260;SDS011;4667;42.726;23.252;2023-02-01T22:27:18;4.77;;;2.80;;
9260;SDS011;4667;42.726;23.252;2023-02-01T22:29:45;3.67;;;3.20;;
9260;SDS011;4667;42.726;23.252;2023-02-01T22:32:12;6.83;;;3.57;;
9260;SDS011;4667;42.726;23.252;2023-02-01T22:34:38;2.90;;;2.60;;
9260;SDS011;4667;42.726;23.252;2023-02-01T22:37:06;4.43;;;2.87;;
9260;SDS011;4667;42.726;23.252;2023-02-01T22:39:33;5.50;;;3.53;;
9260;SDS011;4667;42.726;23.252;2023-02-01T22:41:59;5.87;;;2.90;;
9260;SDS011;4667;42.726;23.252;2023-02-01T22:44:28;2.63;;;2.20;;
9260;SDS011;4667;42.726;23.252;2023-02-01T22:46:55;2.47;;;2.13;;
9260;SDS011;4667;42.726;23.252;2023-02-01T22:49:22;3.80;;;2.40;;
9260;SDS011;4667;42.726;23.252;2023-02-01T22:51:48;3.17;;;2.53;;
9260;SDS011;4667;42.726;23.252;2023-02-01T22:54:18;3.67;;;2.47;;
9260;SDS011;4667;42.726;23.252;2023-02-01T22:56:45;3.37;;;3.07;;
9260;SDS011;4667;42.726;23.252;2023-02-01T22:59:12;4.80;;;2.50;;
9260;SDS011;4667;42.726;23.252;2023-02-01T23:01:39;2.53;;;2.33;;
9260;SDS011;4667;42.726;23.252;2023-02-01T23:04:09;2.37;;;2.17;;
9260;SDS011;4667;42.726;23.252;2023-02-01T23:06:36;4.23;;;2.63;;
9260;SDS011;4667;42.726;23.252;2023-02-01T23:09:03;2.53;;;2.33;;
9260;SDS011;4667;42.726;23.252;2023-02-01T23:11:36;2.40;;;1.83;;
9260;SDS011;4667;42.726;23.252;2023-02-01T23:14:03;2.87;;;1.90;;
9260;SDS011;4667;42.726;23.252;2023-02-01T23:16:30;1.93;;;1.67;;
9260;SDS011;4667;42.726;23.252;2023-02-01T23:18:56;1.77;;;1.67;;
9260;SDS011;4667;42.726;23.252;2023-02-01T23:21:23;1.87;;;1.77;;
9260;SDS011;4667;42.726;23.252;2023-02-01T23:24:02;2.33;;;1.77;;
9260;SDS011;4667;42.726;23.252;2023-02-01T23:26:49;4.07;;;2.07;;
9260;SDS011;4667;42.726;23.252;2023-02-01T23:29:16;3.10;;;2.27;;
9260;SDS011;4667;42.726;23.252;2023-02-01T23:31:43;2.93;;;2.63;;
9260;SDS011;4667;42.726;23.252;2023-02-01T23:34:23;4.20;;;2.57;;
9260;SDS011;4667;42.726;23.252;2023-02-01T23:36:50;3.80;;;2.13;;
9260;SDS011;4667;42.726;23.252;2023-02-01T23:39:17;3.37;;;2.43;;
9260;SDS011;4667;42.726;23.252;2023-02-01T23:41:43;3.63;;;2.80;;
9260;SDS011;4667;42.726;23.252;2023-02-01T23:44:11;2.37;;;2.07;;
9260;SDS011;4667;42.726;23.252;2023-02-01T23:46:38;3.40;;;2.07;;
9260;SDS011;4667;42.726;23.252;2023-02-01T23:49:06;2.57;;;2.37;;
9260;SDS011;4667;42.726;23.252;2023-02-01T23:51:33;2.97;;;2.67;;
9260;SDS011;4667;42.726;23.252;2023-02-01T23:53:59;2.50;;;2.30;;
9260;SDS011;4667;42.726;23.252;2023-02-01T23:56:27;2.63;;;2.43;;
9260;SDS011;4667;42.726;23.252;2023-02-01T23:58:55;10.33;;;2.73;;
